TimePST,TemperatureF,Dew PointF,Humidity,Sea Level PressureIn,VisibilityMPH,Wind Direction,Wind SpeedMPH,Gust SpeedMPH,PrecipitationIn,Events,Conditions,WindDirDegrees,DateUTC
12:54 AM,48.0,46.9,96,30.22,8.0,Calm,Calm,-,N/A,,Mostly Cloudy,0,2012-11-13 08:54:00
1:54 AM,48.0,46.9,96,30.22,6.0,Calm,Calm,-,N/A,,Overcast,0,2012-11-13 09:54:00
2:54 AM,48.9,46.9,93,30.21,6.0,SSW,6.9,-,0.00,Rain,Light Rain,210,2012-11-13 10:54:00
3:31 AM,48.2,46.4,93,30.20,5.0,SW,6.9,-,0.01,Rain,Light Rain,220,2012-11-13 11:31:00
3:44 AM,48.2,46.4,93,30.21,3.0,SSW,5.8,-,0.02,Rain,Light Rain,210,2012-11-13 11:44:00
3:51 AM,48.2,46.4,93,30.21,2.5,SW,5.8,-,0.03,Rain,Light Rain,220,2012-11-13 11:51:00
3:54 AM,48.9,46.9,93,30.21,3.0,SW,5.8,-,0.03,Rain,Light Rain,220,2012-11-13 11:54:00
4:13 AM,48.2,46.4,93,30.20,6.0,SSW,8.1,-,0.01,,Overcast,200,2012-11-13 12:13:00
4:49 AM,48.2,46.4,93,30.20,9.0,SSW,5.8,-,0.01,,Overcast,200,2012-11-13 12:49:00
4:54 AM,48.9,46.9,93,30.21,9.0,SSW,5.8,-,0.01,,Overcast,210,2012-11-13 12:54:00
5:12 AM,48.2,46.4,93,30.20,4.0,SSW,6.9,-,0.00,Rain,Light Rain,200,2012-11-13 13:12:00
5:38 AM,46.4,46.4,100,30.21,10.0,SSW,4.6,-,0.01,,Mostly Cloudy,200,2012-11-13 13:38:00
5:52 AM,46.4,46.4,100,30.20,9.0,SSW,4.6,-,0.01,,Mostly Cloudy,200,2012-11-13 13:52:00
5:54 AM,46.0,46.0,100,30.21,9.0,SSW,4.6,-,0.01,,Mostly Cloudy,200,2012-11-13 13:54:00
6:06 AM,46.4,44.6,93,30.20,10.0,SSW,4.6,-,N/A,,Scattered Clouds,210,2012-11-13 14:06:00
6:17 AM,46.4,46.4,100,30.20,10.0,SSW,4.6,-,N/A,,Mostly Cloudy,210,2012-11-13 14:17:00
6:54 AM,46.0,45.0,96,30.20,10.0,SSW,4.6,-,N/A,,Mostly Cloudy,200,2012-11-13 14:54:00
7:37 AM,46.4,46.4,100,30.20,10.0,SW,4.6,-,N/A,,Mostly Cloudy,220,2012-11-13 15:37:00
7:54 AM,48.2,46.4,93,30.20,10.0,SW,4.6,-,N/A,,Overcast,230,2012-11-13 15:54:00
8:23 AM,48.2,46.4,93,30.20,10.0,SW,4.6,-,N/A,,Overcast,220,2012-11-13 16:23:00
8:54 AM,48.0,46.9,96,30.21,10.0,SW,3.5,-,N/A,,Overcast,230,2012-11-13 16:54:00
9:54 AM,48.9,46.9,93,30.20,7.0,SW,4.6,-,0.01,Rain,Light Rain,230,2012-11-13 17:54:00
10:54 AM,50.0,48.9,96,30.20,6.0,SW,3.5,-,0.01,,Overcast,220,2012-11-13 18:54:00
11:54 AM,52.0,48.9,89,30.18,7.0,SSW,5.8,-,N/A,,Overcast,200,2012-11-13 19:54:00
12:54 PM,52.0,48.9,89,30.17,9.0,SSW,6.9,-,N/A,,Overcast,200,2012-11-13 20:54:00
1:54 PM,51.1,48.9,92,30.16,4.0,Calm,Calm,-,0.01,Rain,Light Rain,0,2012-11-13 21:54:00
2:54 PM,51.1,48.9,92,30.15,6.0,Calm,Calm,-,0.04,Rain,Light Rain,0,2012-11-13 22:54:00
3:54 PM,51.1,48.9,92,30.15,5.0,SSW,3.5,-,0.01,Rain,Light Rain,210,2012-11-13 23:54:00
4:54 PM,50.0,48.9,96,30.14,6.0,Calm,Calm,-,0.01,Rain,Light Rain,0,2012-11-14 00:54:00
5:54 PM,48.9,48.0,97,30.14,5.0,Calm,Calm,-,0.01,,Overcast,0,2012-11-14 01:54:00
6:54 PM,48.0,46.9,96,30.14,3.0,Calm,Calm,-,N/A,,Overcast,0,2012-11-14 02:54:00
7:54 PM,46.9,46.0,97,30.15,0.5,Calm,Calm,-,0.00,Fog,Fog,0,2012-11-14 03:54:00
8:03 PM,46.4,46.4,100,30.14,1.8,Calm,Calm,-,N/A,,Overcast,0,2012-11-14 04:03:00
8:10 PM,46.4,46.4,100,30.15,2.5,Calm,Calm,-,N/A,,Overcast,0,2012-11-14 04:10:00
8:21 PM,48.2,48.2,100,30.15,4.0,West,3.5,-,N/A,,Overcast,270,2012-11-14 04:21:00
8:54 PM,48.0,46.9,96,30.15,3.0,Calm,Calm,-,N/A,,Overcast,0,2012-11-14 04:54:00
9:07 PM,46.4,46.4,100,30.15,1.8,Calm,Calm,-,0.00,Rain,Light Rain,0,2012-11-14 05:07:00
9:19 PM,48.2,46.4,93,30.15,3.0,Calm,Calm,-,0.00,Rain,Light Rain,0,2012-11-14 05:19:00
9:54 PM,48.0,46.9,96,30.17,3.0,Calm,Calm,-,0.01,,Overcast,0,2012-11-14 05:54:00
10:01 PM,48.2,48.2,100,30.16,3.0,Calm,Calm,-,N/A,,Overcast,0,2012-11-14 06:01:00
10:15 PM,48.2,48.2,100,30.16,4.0,Calm,Calm,-,N/A,,Overcast,0,2012-11-14 06:15:00
10:54 PM,48.9,48.0,97,30.18,3.0,WSW,3.5,-,0.00,Rain,Light Rain,250,2012-11-14 06:54:00
11:33 PM,48.2,48.2,100,30.18,5.0,SSW,5.8,-,0.00,,Overcast,210,2012-11-14 07:33:00
11:46 PM,48.2,48.2,100,30.18,5.0,WSW,5.8,-,0.00,,Overcast,240,2012-11-14 07:46:00
11:54 PM,48.9,48.0,97,30.19,4.0,WSW,3.5,-,0.00,,Overcast,250,2012-11-14 07:54:00